createdAt,value
2019-05-03T00:00:16.083Z,10.37
2019-05-03T00:03:01.758Z,9.57
2019-05-03T00:05:37.580Z,10.77
2019-05-03T00:08:08.388Z,11.63
2019-05-03T00:10:38.634Z,12.23
2019-05-03T00:13:08.296Z,13.60
2019-05-03T00:15:52.322Z,11.83
2019-05-03T00:18:22.116Z,13.53
2019-05-03T00:20:52.682Z,14.13
2019-05-03T00:23:22.814Z,13.03
2019-05-03T00:25:52.394Z,14.17
2019-05-03T00:28:21.785Z,14.37
2019-05-03T00:30:51.845Z,13.60
2019-05-03T00:33:22.477Z,12.53
2019-05-03T00:36:04.704Z,11.83
2019-05-03T00:38:33.729Z,12.30
2019-05-03T00:41:02.642Z,12.83
2019-05-03T00:43:31.855Z,13.13
2019-05-03T00:46:01.988Z,13.73
2019-05-03T00:48:32.665Z,14.67
2019-05-03T00:51:02.420Z,14.17
2019-05-03T00:53:31.831Z,15.23
2019-05-03T00:56:01.789Z,14.07
2019-05-03T00:58:31.786Z,14.60
2019-05-03T01:01:02.688Z,14.73
2019-05-03T01:03:32.584Z,12.77
2019-05-03T01:06:02.327Z,13.27
2019-05-03T01:08:32.667Z,12.40
2019-05-03T01:11:02.098Z,11.43
2019-05-03T01:13:32.095Z,12.53
2019-05-03T01:16:08.622Z,11.40
2019-05-03T01:18:37.597Z,9.77
2019-05-03T01:21:06.985Z,7.97
2019-05-03T01:23:35.861Z,9.13
2019-05-03T01:26:05.180Z,8.38
2019-05-03T01:28:34.142Z,10.57
2019-05-03T01:31:02.991Z,8.33
2019-05-03T01:33:32.306Z,9.75
2019-05-03T01:36:02.759Z,12.27
2019-05-03T01:38:32.120Z,9.77
2019-05-03T01:41:01.781Z,9.33
2019-05-03T01:43:31.703Z,10.77
2019-05-03T01:46:02.735Z,9.20
2019-05-03T01:49:02.712Z,7.53
2019-05-03T01:51:52.537Z,11.27
2019-05-03T01:54:22.859Z,6.37
2019-05-03T01:56:58.670Z,6.80
2019-05-03T01:59:22.739Z,5.80
2019-05-03T02:02:02.282Z,8.00
2019-05-03T02:04:41.742Z,4.70
2019-05-03T02:07:11.730Z,7.90
2019-05-03T02:09:41.716Z,4.87
2019-05-03T02:12:12.630Z,5.67
2019-05-03T02:14:42.252Z,5.13
2019-05-03T02:17:12.458Z,4.87
2019-05-03T02:19:42.156Z,5.00
2019-05-03T02:22:12.095Z,5.37
2019-05-03T02:24:42.220Z,7.93
2019-05-03T02:27:12.725Z,4.47
2019-05-03T02:29:41.893Z,4.20
2019-05-03T02:32:13.188Z,5.17
2019-05-03T02:34:43.848Z,5.37
2019-05-03T02:37:13.883Z,3.27
2019-05-03T02:39:43.058Z,3.13
2019-05-03T02:42:12.124Z,4.23
2019-05-03T02:44:41.233Z,4.80
2019-05-03T02:47:27.841Z,4.90
2019-05-03T02:50:00.713Z,4.83
2019-05-03T02:52:36.895Z,11.27
2019-05-03T02:55:07.742Z,6.33
2019-05-03T02:57:36.703Z,5.13
2019-05-03T03:00:08.319Z,4.70
2019-05-03T03:02:38.384Z,4.63
2019-05-03T03:05:07.481Z,6.77
2019-05-03T03:07:37.661Z,5.10
2019-05-03T03:10:08.197Z,5.37
2019-05-03T03:12:39.525Z,7.37
2019-05-03T03:15:08.393Z,7.23
2019-05-03T03:17:38.827Z,7.67
2019-05-03T03:20:08.781Z,9.47
2019-05-03T03:22:45.299Z,9.10
2019-05-03T03:25:35.970Z,8.00
2019-05-03T03:28:05.525Z,8.33
2019-05-03T03:31:28.292Z,8.70
2019-05-03T03:33:59.546Z,12.73
2019-05-03T03:36:44.867Z,7.77
2019-05-03T03:39:00.675Z,8.05
2019-05-03T03:41:31.014Z,8.73
2019-05-03T03:44:15.328Z,8.97
2019-05-03T03:46:45.464Z,9.20
2019-05-03T03:49:16.222Z,9.87
2019-05-03T03:51:46.440Z,11.73
2019-05-03T03:54:18.245Z,12.10
2019-05-03T03:57:03.005Z,14.17
2019-05-03T03:59:26.486Z,16.13
2019-05-03T04:01:56.998Z,13.17
2019-05-03T04:04:26.570Z,13.03
2019-05-03T04:07:00.514Z,13.73
2019-05-03T04:09:27.352Z,16.63
2019-05-03T04:11:57.144Z,18.93
2019-05-03T04:14:31.787Z,14.40
2019-05-03T04:17:26.053Z,16.30
2019-05-03T04:19:55.997Z,15.97
2019-05-03T04:22:25.632Z,15.93
2019-05-03T04:24:55.558Z,14.90
2019-05-03T04:27:28.025Z,16.93
2019-05-03T04:29:56.839Z,16.20
2019-05-03T04:32:28.984Z,16.17
2019-05-03T04:34:56.264Z,15.90
2019-05-03T04:37:26.683Z,21.83
2019-05-03T04:39:56.214Z,15.67
2019-05-03T04:42:25.684Z,17.00
2019-05-03T04:44:56.270Z,15.77
2019-05-03T04:47:26.431Z,16.20
2019-05-03T04:49:55.711Z,16.87
2019-05-03T04:52:25.983Z,16.63
2019-05-03T04:54:57.192Z,17.40
2019-05-03T04:57:39.912Z,15.53
2019-05-03T04:59:57.057Z,20.47
2019-05-03T05:02:26.608Z,21.30
2019-05-03T05:04:55.898Z,16.60
2019-05-03T05:07:26.171Z,16.57
2019-05-03T05:09:56.372Z,15.73
2019-05-03T05:12:25.586Z,21.73
2019-05-03T05:14:56.403Z,15.70
2019-05-03T05:17:35.505Z,16.30
2019-05-03T05:20:35.738Z,16.83
2019-05-03T05:23:04.900Z,16.60
2019-05-03T05:25:38.044Z,16.23
2019-05-03T05:28:15.110Z,16.07
2019-05-03T05:30:44.420Z,15.23
2019-05-03T05:33:25.042Z,14.17
2019-05-03T05:35:54.692Z,15.83
2019-05-03T05:38:25.592Z,14.50
2019-05-03T05:40:55.494Z,15.03
2019-05-03T05:43:25.542Z,18.03
2019-05-03T05:45:55.375Z,14.90
2019-05-03T05:48:30.935Z,18.00
2019-05-03T05:50:59.830Z,14.03
2019-05-03T05:53:28.760Z,14.37
2019-05-03T05:56:22.513Z,14.97
2019-05-03T05:59:02.028Z,15.33
2019-05-03T06:01:35.332Z,15.57
2019-05-03T06:04:05.386Z,19.77
2019-05-03T06:06:59.577Z,14.33
2019-05-03T06:09:44.834Z,15.43
2019-05-03T06:12:38.925Z,15.20
2019-05-03T06:15:15.055Z,14.13
2019-05-03T06:17:55.481Z,14.97
2019-05-03T06:20:37.248Z,13.87
2019-05-03T06:23:10.741Z,12.93
2019-05-03T06:25:42.283Z,16.63
2019-05-03T06:28:20.788Z,14.53
2019-05-03T06:31:06.130Z,13.03
2019-05-03T06:33:35.242Z,15.63
2019-05-03T06:36:04.978Z,14.57
2019-05-03T06:38:34.440Z,15.90
2019-05-03T06:41:04.703Z,15.03
2019-05-03T06:43:34.845Z,21.27
2019-05-03T06:46:05.366Z,14.13
2019-05-03T06:48:35.232Z,21.07
2019-05-03T06:51:08.807Z,15.77
2019-05-03T06:53:34.870Z,16.50
2019-05-03T06:56:04.567Z,15.67
2019-05-03T06:58:36.369Z,15.33
2019-05-03T07:01:35.651Z,14.43
2019-05-03T07:04:09.975Z,18.57
2019-05-03T07:06:46.177Z,15.50
2019-05-03T07:09:19.883Z,17.47
2019-05-03T07:11:48.855Z,16.60
2019-05-03T07:14:17.688Z,18.90
2019-05-03T07:16:46.613Z,18.30
2019-05-03T07:19:15.452Z,15.40
2019-05-03T07:21:44.728Z,16.10
2019-05-03T07:24:14.631Z,12.00
2019-05-03T07:26:44.803Z,11.87
2019-05-03T07:29:15.209Z,11.03
2019-05-03T07:31:44.734Z,10.83
2019-05-03T07:34:15.612Z,9.70
2019-05-03T07:36:44.834Z,10.23
2019-05-03T07:39:14.578Z,14.30
2019-05-03T07:41:44.638Z,9.30
2019-05-03T07:44:15.194Z,8.83
2019-05-03T07:46:45.202Z,8.70
2019-05-03T07:49:15.372Z,9.47
2019-05-03T07:51:44.866Z,10.07
2019-05-03T07:54:15.707Z,8.40
2019-05-03T07:56:50.298Z,8.70
2019-05-03T07:59:19.101Z,5.60
2019-05-03T08:01:50.783Z,4.67
2019-05-03T08:04:19.571Z,5.40
2019-05-03T08:06:48.649Z,5.30
2019-05-03T08:09:17.636Z,4.77
2019-05-03T08:11:46.773Z,4.00
2019-05-03T08:14:18.026Z,3.63
2019-05-03T08:16:46.568Z,4.07
2019-05-03T08:19:15.517Z,4.77
2019-05-03T08:21:45.718Z,5.83
2019-05-03T08:24:15.019Z,4.70
2019-05-03T08:26:45.294Z,4.10
2019-05-03T08:29:18.611Z,5.60
2019-05-03T08:32:12.921Z,5.07
2019-05-03T08:35:06.835Z,4.00
2019-05-03T08:37:48.252Z,3.63
2019-05-03T08:40:17.933Z,4.87
2019-05-03T08:42:46.809Z,4.87
2019-05-03T08:45:15.794Z,4.20
2019-05-03T08:47:45.146Z,5.67
2019-05-03T08:50:20.707Z,8.07
2019-05-03T08:52:45.330Z,6.30
2019-05-03T08:55:15.851Z,3.53
2019-05-03T08:57:45.052Z,3.77
2019-05-03T09:00:16.678Z,4.30
2019-05-03T09:02:45.880Z,3.50
2019-05-03T09:05:18.602Z,3.47
2019-05-03T09:07:46.597Z,6.50
2019-05-03T09:10:27.258Z,4.17
2019-05-03T09:13:30.762Z,6.72
2019-05-03T09:15:59.685Z,4.00
2019-05-03T09:18:28.608Z,6.37
2019-05-03T09:20:57.620Z,5.40
2019-05-03T09:23:26.706Z,6.30
2019-05-03T09:25:55.588Z,9.97
2019-05-03T09:28:26.506Z,3.53
2019-05-03T09:30:55.323Z,5.07
2019-05-03T09:33:24.957Z,4.30
2019-05-03T09:35:54.959Z,2.60
2019-05-03T09:38:25.647Z,2.80
2019-05-03T09:40:54.772Z,3.03
2019-05-03T09:43:25.071Z,3.53
2019-05-03T09:45:54.769Z,2.40
2019-05-03T09:48:25.530Z,2.77
2019-05-03T09:50:55.603Z,4.20
2019-05-03T09:53:26.720Z,3.67
2019-05-03T09:55:55.722Z,4.30
2019-05-03T09:58:26.366Z,4.40
2019-05-03T10:00:55.648Z,5.07
2019-05-03T10:03:24.848Z,2.37
2019-05-03T10:05:55.425Z,4.60
2019-05-03T10:08:25.452Z,4.90
2019-05-03T10:11:15.136Z,1.80
2019-05-03T10:13:47.383Z,3.43
2019-05-03T10:16:15.620Z,2.40
2019-05-03T10:18:46.009Z,2.80
2019-05-03T10:21:15.236Z,2.73
2019-05-03T10:23:45.168Z,3.87
2019-05-03T10:26:15.083Z,2.23
2019-05-03T10:28:44.302Z,2.10
2019-05-03T10:31:13.281Z,1.87
2019-05-03T10:33:46.871Z,2.80
2019-05-03T10:36:15.877Z,5.93
2019-05-03T10:38:46.022Z,2.40
2019-05-03T10:41:15.194Z,3.93
2019-05-03T10:43:45.096Z,3.07
2019-05-03T10:46:15.986Z,2.20
2019-05-03T10:48:45.426Z,3.60
2019-05-03T10:51:15.681Z,6.53
2019-05-03T10:53:47.679Z,2.70
2019-05-03T10:56:24.499Z,3.60
2019-05-03T10:58:58.901Z,2.67
2019-05-03T11:01:35.999Z,4.67
2019-05-03T11:04:05.422Z,3.60
2019-05-03T11:06:35.513Z,5.50
2019-05-03T11:09:05.816Z,5.50
2019-05-03T11:11:35.326Z,5.23
2019-05-03T11:14:05.410Z,4.00
2019-05-03T11:16:35.117Z,3.20
2019-05-03T11:19:05.507Z,4.67
2019-05-03T11:21:34.938Z,4.70
2019-05-03T11:24:03.959Z,2.30
2019-05-03T11:26:34.995Z,6.10
2019-05-03T11:29:05.196Z,3.13
2019-05-03T11:32:00.292Z,2.10
2019-05-03T11:34:35.495Z,5.03
2019-05-03T11:37:39.007Z,5.97
2019-05-03T11:40:09.129Z,5.87
2019-05-03T11:42:37.940Z,4.33
2019-05-03T11:45:06.940Z,4.97
2019-05-03T11:47:35.780Z,5.07
2019-05-03T11:50:05.247Z,4.17
2019-05-03T11:52:35.574Z,3.47
2019-05-03T11:55:11.379Z,2.43
2019-05-03T11:57:35.960Z,7.20
2019-05-03T12:00:06.184Z,5.03
2019-05-03T12:02:51.191Z,6.77
2019-05-03T12:05:25.314Z,8.07
2019-05-03T12:07:54.795Z,5.33
2019-05-03T12:10:36.548Z,5.70
2019-05-03T12:13:00.129Z,3.83
2019-05-03T12:15:29.067Z,4.70
2019-05-03T12:18:00.997Z,4.13
2019-05-03T12:20:31.758Z,3.53
2019-05-03T12:23:02.057Z,4.43
2019-05-03T12:25:32.159Z,6.20
2019-05-03T12:28:01.342Z,2.60
2019-05-03T12:30:30.323Z,4.47
2019-05-03T12:32:59.274Z,3.00
2019-05-03T12:35:28.104Z,4.53
2019-05-03T12:37:57.093Z,2.13
2019-05-03T12:40:26.076Z,1.93
2019-05-03T12:42:55.591Z,6.13
2019-05-03T12:45:24.827Z,3.70
2019-05-03T12:47:55.687Z,3.67
2019-05-03T12:50:25.184Z,2.10
2019-05-03T12:52:55.474Z,3.20
2019-05-03T12:55:24.918Z,5.23
2019-05-03T12:57:55.616Z,3.10
2019-05-03T13:00:48.675Z,3.50
2019-05-03T13:03:24.653Z,3.23
2019-05-03T13:05:55.619Z,4.13
2019-05-03T13:08:35.318Z,2.37
2019-05-03T13:11:05.303Z,5.17
2019-05-03T13:13:35.896Z,5.27
2019-05-03T13:16:05.444Z,3.00
2019-05-03T13:18:35.064Z,4.03
2019-05-03T13:21:05.834Z,1.63
2019-05-03T13:23:35.843Z,3.27
2019-05-03T13:26:05.812Z,3.47
2019-05-03T13:28:35.293Z,2.50
2019-05-03T13:31:05.821Z,2.70
2019-05-03T13:33:35.190Z,2.77
2019-05-03T13:36:04.769Z,9.07
2019-05-03T13:38:34.936Z,3.00
2019-05-03T13:41:06.236Z,5.23
2019-05-03T13:43:34.943Z,6.73
2019-05-03T13:46:05.167Z,5.17
2019-05-03T13:48:42.782Z,6.83
2019-05-03T13:51:05.426Z,2.90
2019-05-03T13:53:34.932Z,2.57
2019-05-03T13:56:04.789Z,5.67
2019-05-03T13:58:35.874Z,5.63
2019-05-03T14:01:05.516Z,5.73
2019-05-03T14:03:35.193Z,3.57
2019-05-03T14:06:08.388Z,5.20
2019-05-03T14:08:35.280Z,2.90
2019-05-03T14:11:05.026Z,5.67
2019-05-03T14:13:35.352Z,3.53
2019-05-03T14:16:05.522Z,2.90
2019-05-03T14:18:35.305Z,5.33
2019-05-03T14:21:11.397Z,2.03
2019-05-03T14:23:58.098Z,6.43
2019-05-03T14:26:27.025Z,2.87
2019-05-03T14:28:55.865Z,3.33
2019-05-03T14:31:25.307Z,3.63
2019-05-03T14:33:55.835Z,3.57
2019-05-03T14:36:25.193Z,2.93
2019-05-03T14:38:54.845Z,2.37
2019-05-03T14:41:25.460Z,3.77
2019-05-03T14:43:55.664Z,3.70
2019-05-03T14:46:32.612Z,6.37
2019-05-03T14:48:55.570Z,2.80
2019-05-03T14:51:25.338Z,6.37
2019-05-03T14:53:56.959Z,3.23
2019-05-03T14:56:45.571Z,4.10
2019-05-03T14:59:35.946Z,4.47
2019-05-03T15:02:40.188Z,4.80
2019-05-03T15:04:57.725Z,3.03
2019-05-03T15:07:26.645Z,5.33
2019-05-03T15:09:55.582Z,2.97
2019-05-03T15:12:25.213Z,4.78
2019-05-03T15:14:54.690Z,3.67
2019-05-03T15:17:24.655Z,4.93
2019-05-03T15:19:54.725Z,8.97
2019-05-03T15:22:25.357Z,2.90
2019-05-03T15:24:54.626Z,2.00
2019-05-03T15:27:24.848Z,5.17
2019-05-03T15:29:55.563Z,3.53
2019-05-03T15:32:24.729Z,4.33
2019-05-03T15:34:55.345Z,2.73
2019-05-03T15:37:25.462Z,3.40
2019-05-03T15:39:54.769Z,5.73
2019-05-03T15:42:24.546Z,2.27
2019-05-03T15:45:11.221Z,3.70
2019-05-03T15:47:45.488Z,4.47
2019-05-03T15:50:15.508Z,3.50
2019-05-03T15:52:44.579Z,3.20
2019-05-03T15:55:15.168Z,2.83
2019-05-03T15:57:44.686Z,3.50
2019-05-03T16:00:15.573Z,4.10
2019-05-03T16:02:44.575Z,4.37
2019-05-03T16:05:15.454Z,3.10
2019-05-03T16:07:44.641Z,3.27
2019-05-03T16:10:15.391Z,3.17
2019-05-03T16:12:44.937Z,4.37
2019-05-03T16:15:14.066Z,4.90
2019-05-03T16:17:44.849Z,6.17
2019-05-03T16:20:14.416Z,3.27
2019-05-03T16:22:46.391Z,17.73
2019-05-03T16:25:14.331Z,11.47
2019-05-03T16:27:50.760Z,6.50
2019-05-03T16:30:39.003Z,3.50
2019-05-03T16:33:08.058Z,2.77
2019-05-03T16:35:37.826Z,4.27
2019-05-03T16:38:07.102Z,5.47
2019-05-03T16:40:36.092Z,2.53
2019-05-03T16:43:05.123Z,3.23
2019-05-03T16:45:35.048Z,3.73
2019-05-03T16:48:04.527Z,4.53
2019-05-03T16:50:34.537Z,2.13
2019-05-03T16:53:05.454Z,3.40
2019-05-03T16:55:35.192Z,2.90
2019-05-03T16:58:04.312Z,3.37
2019-05-03T17:00:35.189Z,3.67
2019-05-03T17:03:05.669Z,3.30
2019-05-03T17:05:52.334Z,2.70
2019-05-03T17:08:28.251Z,3.60
2019-05-03T17:10:58.245Z,3.47
2019-05-03T17:13:27.141Z,4.63
2019-05-03T17:15:56.033Z,3.70
2019-05-03T17:18:24.957Z,1.50
2019-05-03T17:20:54.763Z,4.03
2019-05-03T17:23:24.572Z,2.53
2019-05-03T17:25:53.803Z,4.40
2019-05-03T17:28:24.722Z,3.30
2019-05-03T17:30:55.260Z,10.27
2019-05-03T17:33:25.325Z,4.73
2019-05-03T17:35:54.522Z,2.53
2019-05-03T17:38:23.409Z,4.17
2019-05-03T17:41:14.879Z,4.13
2019-05-03T17:43:50.538Z,7.00
2019-05-03T17:46:19.385Z,5.43
2019-05-03T17:48:48.747Z,26.27
2019-05-03T17:51:35.582Z,4.40
2019-05-03T17:54:29.794Z,5.43
2019-05-03T17:57:01.911Z,5.63
2019-05-03T17:59:35.578Z,4.83
2019-05-03T18:02:23.737Z,4.73
2019-05-03T18:05:15.226Z,3.93
2019-05-03T18:07:57.648Z,5.20
2019-05-03T18:10:27.447Z,4.30
2019-05-03T18:12:56.442Z,1.93
2019-05-03T18:15:25.423Z,3.40
2019-05-03T18:17:54.869Z,2.33
2019-05-03T18:20:25.547Z,7.80
2019-05-03T18:22:54.836Z,5.43
2019-05-03T18:25:24.864Z,2.60
2019-05-03T18:27:55.215Z,2.73
2019-05-03T18:30:24.413Z,4.40
2019-05-03T18:32:54.426Z,4.53
2019-05-03T18:35:25.561Z,4.57
2019-05-03T18:37:58.638Z,5.07
2019-05-03T18:40:28.422Z,3.07
2019-05-03T18:43:04.550Z,6.17
2019-05-03T18:46:00.605Z,6.03
2019-05-03T18:48:29.587Z,8.17
2019-05-03T18:50:58.479Z,4.97
2019-05-03T18:53:27.368Z,5.83
2019-05-03T18:55:56.405Z,3.90
2019-05-03T18:58:25.346Z,5.97
2019-05-03T19:00:54.895Z,8.53
2019-05-03T19:03:25.228Z,5.77
2019-05-03T19:05:57.705Z,5.13
2019-05-03T19:08:45.610Z,3.60
2019-05-03T19:11:24.526Z,4.70
2019-05-03T19:13:56.646Z,6.43
2019-05-03T19:16:39.466Z,7.03
2019-05-03T19:19:09.079Z,14.40
2019-05-03T19:21:38.033Z,8.37
2019-05-03T19:24:07.272Z,6.73
2019-05-03T19:26:36.224Z,4.30
2019-05-03T19:29:05.185Z,3.07
2019-05-03T19:31:35.602Z,2.77
2019-05-03T19:34:06.051Z,5.78
2019-05-03T19:36:37.205Z,4.40
2019-05-03T19:39:06.749Z,6.87
2019-05-03T19:41:35.790Z,5.93
2019-05-03T19:44:04.799Z,3.67
2019-05-03T19:46:35.093Z,4.47
2019-05-03T19:49:05.074Z,8.23
2019-05-03T19:51:34.352Z,4.70
2019-05-03T19:54:05.406Z,5.07
2019-05-03T19:56:34.567Z,10.17
2019-05-03T19:59:07.601Z,3.97
2019-05-03T20:01:46.066Z,4.20
2019-05-03T20:04:33.959Z,7.50
2019-05-03T20:07:17.026Z,7.07
2019-05-03T20:09:46.205Z,4.53
2019-05-03T20:12:16.107Z,5.28
2019-05-03T20:14:45.219Z,5.97
2019-05-03T20:17:14.794Z,4.20
2019-05-03T20:19:45.163Z,5.83
2019-05-03T20:22:15.146Z,3.90
2019-05-03T20:24:44.768Z,5.57
2019-05-03T20:27:15.829Z,5.63
2019-05-03T20:29:46.300Z,4.37
2019-05-03T20:32:15.975Z,4.47
2019-05-03T20:34:46.699Z,6.07
2019-05-03T20:37:15.767Z,8.07
2019-05-03T20:39:45.292Z,8.10
2019-05-03T20:42:35.581Z,10.03
2019-05-03T20:45:05.738Z,5.50
2019-05-03T20:47:42.031Z,5.37
2019-05-03T20:50:18.293Z,7.23
2019-05-03T20:52:47.323Z,8.80
2019-05-03T20:55:16.467Z,14.23
2019-05-03T20:57:45.390Z,6.43
2019-05-03T21:00:18.204Z,6.33
2019-05-03T21:02:53.543Z,5.87
2019-05-03T21:05:26.874Z,7.17
2019-05-03T21:07:48.882Z,9.93
2019-05-03T21:10:18.009Z,8.17
2019-05-03T21:12:47.043Z,6.47
2019-05-03T21:15:27.702Z,7.03
2019-05-03T21:18:15.230Z,7.03
2019-05-03T21:21:02.236Z,10.83
2019-05-03T21:23:34.485Z,7.87
2019-05-03T21:26:13.512Z,11.90
2019-05-03T21:28:40.186Z,9.23
2019-05-03T21:31:09.267Z,5.40
2019-05-03T21:33:38.301Z,6.33
2019-05-03T21:36:07.254Z,10.70
2019-05-03T21:38:36.115Z,9.20
2019-05-03T21:41:05.429Z,7.03
2019-05-03T21:43:34.983Z,7.47
2019-05-03T21:46:11.939Z,8.77
2019-05-03T21:48:57.994Z,10.77
2019-05-03T21:51:26.917Z,6.13
2019-05-03T21:53:55.691Z,9.43
2019-05-03T21:56:25.086Z,5.70
2019-05-03T21:58:55.289Z,8.63
2019-05-03T22:01:25.928Z,9.43
2019-05-03T22:03:54.984Z,8.77
2019-05-03T22:06:24.629Z,10.33
2019-05-03T22:08:55.422Z,6.67
2019-05-03T22:11:25.134Z,8.33
2019-05-03T22:13:57.170Z,11.27
2019-05-03T22:16:44.892Z,8.67
2019-05-03T22:19:16.311Z,11.40
2019-05-03T22:21:55.308Z,9.50
2019-05-03T22:24:55.700Z,10.70
2019-05-03T22:27:24.786Z,7.50
2019-05-03T22:29:54.588Z,11.53
2019-05-03T22:32:24.469Z,9.50
2019-05-03T22:34:54.337Z,11.60
2019-05-03T22:37:25.244Z,11.97
2019-05-03T22:39:54.965Z,8.20
2019-05-03T22:42:25.307Z,9.43
2019-05-03T22:44:55.356Z,7.70
2019-05-03T22:47:25.344Z,12.63
2019-05-03T22:49:54.851Z,8.77
2019-05-03T22:52:25.707Z,11.30
2019-05-03T22:54:55.491Z,13.33
2019-05-03T22:57:24.907Z,15.77
2019-05-03T22:59:53.829Z,12.70
2019-05-03T23:02:24.900Z,14.47
2019-05-03T23:04:55.421Z,9.63
2019-05-03T23:07:24.965Z,9.70
2019-05-03T23:09:54.180Z,13.77
2019-05-03T23:12:23.079Z,7.83
2019-05-03T23:14:52.120Z,13.80
2019-05-03T23:17:21.239Z,7.53
2019-05-03T23:19:56.536Z,8.07
2019-05-03T23:22:28.344Z,10.10
2019-05-03T23:24:57.362Z,12.43
2019-05-03T23:27:26.617Z,10.80
2019-05-03T23:29:56.002Z,10.17
2019-05-03T23:32:24.933Z,9.90
2019-05-03T23:34:54.407Z,10.40
2019-05-03T23:37:23.550Z,11.50
2019-05-03T23:39:52.496Z,8.73
2019-05-03T23:42:21.275Z,9.17
2019-05-03T23:44:50.263Z,8.03
2019-05-03T23:47:34.491Z,11.27
2019-05-03T23:50:04.809Z,16.77
2019-05-03T23:52:38.314Z,11.33
2019-05-03T23:55:19.144Z,7.97
2019-05-03T23:57:48.216Z,13.07
